createdAt,value
2023-04-30T06:17:26.371Z,15.21
2023-04-30T06:19:53.384Z,15.19
2023-04-30T06:22:20.584Z,15.30
2023-04-30T06:24:47.464Z,15.33
2023-04-30T06:27:14.302Z,15.40
2023-04-30T06:29:41.162Z,15.47
2023-04-30T06:32:08.602Z,15.62
2023-04-30T06:34:35.834Z,15.72
2023-04-30T06:37:02.817Z,15.83
2023-04-30T06:39:29.765Z,15.94
2023-04-30T06:41:56.596Z,16.01
2023-04-30T06:44:23.417Z,16.05
2023-04-30T06:46:50.232Z,16.06
2023-04-30T06:49:17.187Z,16.10
2023-04-30T06:51:44.044Z,16.17
2023-04-30T06:54:11.044Z,16.14
2023-04-30T06:56:37.845Z,16.07
2023-04-30T06:59:04.669Z,16.03
2023-04-30T07:01:31.542Z,15.97
2023-04-30T07:03:59.245Z,15.99
2023-04-30T07:06:26.240Z,15.96
2023-04-30T07:08:53.176Z,15.95
2023-04-30T07:11:20.057Z,15.94
2023-04-30T07:13:46.924Z,15.97
2023-04-30T07:16:14.678Z,15.93
2023-04-30T07:18:41.646Z,15.94
2023-04-30T07:21:08.882Z,15.90
2023-04-30T07:23:35.711Z,15.89
2023-04-30T07:26:02.561Z,15.89
2023-04-30T07:28:29.407Z,15.91
2023-04-30T07:30:56.259Z,15.93
2023-04-30T07:33:23.037Z,15.92
2023-04-30T07:35:49.984Z,15.94
2023-04-30T07:38:19.088Z,15.94
2023-04-30T07:40:45.874Z,15.93
2023-04-30T07:43:12.710Z,15.95
2023-04-30T07:45:39.534Z,15.97
2023-04-30T07:48:06.796Z,15.97
2023-04-30T07:50:34.418Z,15.97
2023-04-30T07:53:02.262Z,15.97
2023-04-30T07:55:29.255Z,16.01
2023-04-30T07:57:56.087Z,16.03
2023-04-30T08:00:23.219Z,16.05
2023-04-30T08:02:51.105Z,16.07
2023-04-30T08:05:18.127Z,16.03
2023-04-30T08:07:45.018Z,16.03
2023-04-30T08:10:12.237Z,16.04
2023-04-30T08:12:39.292Z,16.06
2023-04-30T08:15:07.580Z,16.06
2023-04-30T08:17:34.803Z,16.05
2023-04-30T08:20:03.025Z,16.05
2023-04-30T08:22:29.989Z,16.06
2023-04-30T08:24:56.954Z,16.05
2023-04-30T08:27:23.922Z,16.05
2023-04-30T08:29:50.741Z,16.06
2023-04-30T08:32:19.783Z,16.07
2023-04-30T08:34:46.805Z,16.06
2023-04-30T08:37:13.795Z,16.07
2023-04-30T08:39:40.717Z,16.10
2023-04-30T08:42:09.907Z,16.11
2023-04-30T08:44:43.979Z,16.13
2023-04-30T08:47:14.442Z,16.18
2023-04-30T08:49:42.037Z,16.20
2023-04-30T08:52:09.077Z,16.25
2023-04-30T08:54:37.316Z,16.30
2023-04-30T08:57:04.850Z,16.35
2023-04-30T08:59:31.724Z,16.39
2023-04-30T09:02:01.357Z,16.42
2023-04-30T09:04:28.666Z,16.43
2023-04-30T09:06:59.252Z,16.46
2023-04-30T09:09:30.819Z,16.48
2023-04-30T09:12:20.061Z,16.48
2023-04-30T09:15:01.677Z,16.53
2023-04-30T09:17:28.719Z,16.57
2023-04-30T09:20:07.029Z,16.60
2023-04-30T09:22:34.649Z,16.64
2023-04-30T09:25:01.610Z,16.67
2023-04-30T09:27:28.403Z,16.71
2023-04-30T09:29:55.470Z,16.76
2023-04-30T09:32:22.662Z,16.78
2023-04-30T09:34:49.751Z,16.82
2023-04-30T09:37:16.650Z,16.83
2023-04-30T09:39:54.989Z,16.85
2023-04-30T09:42:22.745Z,16.90
2023-04-30T09:44:49.650Z,16.93
2023-04-30T09:47:20.569Z,16.96
2023-04-30T09:49:52.724Z,16.98
2023-04-30T09:52:21.091Z,17.01
2023-04-30T09:54:48.086Z,17.04
2023-04-30T09:57:16.092Z,17.07
2023-04-30T09:59:47.056Z,17.13
2023-04-30T10:02:16.324Z,17.15
2023-04-30T10:04:44.863Z,17.18
2023-04-30T10:07:22.291Z,17.22
2023-04-30T10:09:59.607Z,17.27
2023-04-30T10:12:30.316Z,17.31
2023-04-30T10:15:15.882Z,17.37
2023-04-30T10:17:46.271Z,17.42
2023-04-30T10:20:13.261Z,17.46
2023-04-30T10:22:41.930Z,17.50
2023-04-30T10:25:14.031Z,17.52
2023-04-30T10:27:41.002Z,17.53
2023-04-30T10:30:10.754Z,17.56
2023-04-30T10:33:16.964Z,17.58
2023-04-30T10:35:44.882Z,17.59
2023-04-30T10:38:27.243Z,17.58
2023-04-30T10:40:58.316Z,17.59
2023-04-30T10:43:26.006Z,17.59
2023-04-30T10:45:53.029Z,17.60
2023-04-30T10:48:25.642Z,17.61
2023-04-30T10:50:53.715Z,17.60
2023-04-30T10:53:23.168Z,17.61
2023-04-30T10:56:09.822Z,17.60
2023-04-30T10:58:38.918Z,17.63
2023-04-30T11:01:11.095Z,17.63
2023-04-30T11:03:38.703Z,17.66
2023-04-30T11:06:15.587Z,17.71
2023-04-30T11:08:46.391Z,17.78
2023-04-30T11:11:18.719Z,17.82
2023-04-30T11:13:46.561Z,17.86
2023-04-30T11:16:14.040Z,17.91
2023-04-30T11:18:47.832Z,17.95
2023-04-30T11:21:14.614Z,18.00
2023-04-30T11:23:45.661Z,18.06
2023-04-30T11:26:12.653Z,18.10
2023-04-30T11:28:39.551Z,18.12
2023-04-30T11:31:06.578Z,18.16
2023-04-30T11:33:34.371Z,18.17
2023-04-30T11:36:02.019Z,18.19
2023-04-30T11:38:35.861Z,18.19
2023-04-30T11:41:03.723Z,18.21
2023-04-30T11:43:34.865Z,18.23
2023-04-30T11:46:11.581Z,18.28
2023-04-30T11:48:40.745Z,18.32
2023-04-30T11:51:22.078Z,18.36
2023-04-30T11:53:51.734Z,18.38
2023-04-30T11:56:27.842Z,18.40
2023-04-30T11:58:57.998Z,18.43
2023-04-30T12:01:27.778Z,18.44
2023-04-30T12:03:57.542Z,18.45
2023-04-30T12:06:26.641Z,18.48
2023-04-30T12:08:58.229Z,18.49
2023-04-30T12:11:29.803Z,18.51
2023-04-30T12:14:12.995Z,18.55
2023-04-30T12:16:51.322Z,18.57
2023-04-30T12:19:19.483Z,18.59
2023-04-30T12:21:47.744Z,18.57
2023-04-30T12:24:19.468Z,18.57
2023-04-30T12:26:46.795Z,18.57
2023-04-30T12:29:16.503Z,18.55
2023-04-30T12:31:44.039Z,18.55
2023-04-30T12:34:13.286Z,18.52
2023-04-30T12:36:44.564Z,18.53
2023-04-30T12:39:18.602Z,18.54
2023-04-30T12:41:49.861Z,18.58
2023-04-30T12:44:20.390Z,18.59
2023-04-30T12:46:53.620Z,18.61
2023-04-30T12:49:30.713Z,18.63
2023-04-30T12:52:12.649Z,18.64
2023-04-30T12:54:39.973Z,18.67
2023-04-30T12:57:07.699Z,18.70
2023-04-30T12:59:57.879Z,18.74
2023-04-30T13:02:27.282Z,18.81
2023-04-30T13:04:54.768Z,18.87
2023-04-30T13:07:21.787Z,18.95
2023-04-30T13:09:48.598Z,19.02
2023-04-30T13:12:15.559Z,19.06
2023-04-30T13:14:42.485Z,19.08
2023-04-30T13:17:11.108Z,19.09
2023-04-30T13:19:37.944Z,19.09
2023-04-30T13:22:04.975Z,19.08
2023-04-30T13:24:31.910Z,19.06
2023-04-30T13:26:59.516Z,19.06
2023-04-30T13:29:26.570Z,19.05
2023-04-30T13:31:53.602Z,19.04
2023-04-30T13:34:20.571Z,19.02
2023-04-30T13:36:47.695Z,19.02
2023-04-30T13:39:14.568Z,19.03
2023-04-30T13:41:41.356Z,19.03
2023-04-30T13:44:08.390Z,19.01
2023-04-30T13:46:35.256Z,19.02
2023-04-30T13:49:02.784Z,19.02
2023-04-30T13:51:29.661Z,19.03
2023-04-30T13:53:56.846Z,19.03
2023-04-30T13:56:24.394Z,19.06
2023-04-30T13:58:51.387Z,19.06
2023-04-30T14:01:18.295Z,19.07
2023-04-30T14:03:46.801Z,19.12
2023-04-30T14:06:13.747Z,19.19
2023-04-30T14:08:40.582Z,19.20
2023-04-30T14:11:07.607Z,19.27
2023-04-30T14:13:34.718Z,19.26
2023-04-30T14:16:02.217Z,19.24
2023-04-30T14:18:29.199Z,19.23
2023-04-30T14:20:56.252Z,19.26
2023-04-30T14:23:23.116Z,19.25
2023-04-30T14:25:50.001Z,19.28
2023-04-30T14:28:16.930Z,19.27
2023-04-30T14:30:43.804Z,19.26
2023-04-30T14:33:12.684Z,19.27
2023-04-30T14:35:39.945Z,19.27
2023-04-30T14:38:06.714Z,19.25
2023-04-30T14:40:33.517Z,19.25
2023-04-30T14:43:00.423Z,19.26
2023-04-30T14:45:28.450Z,19.23
2023-04-30T14:47:55.668Z,19.20
2023-04-30T14:50:22.785Z,19.22
2023-04-30T14:52:50.110Z,19.26
2023-04-30T14:55:17.280Z,19.31
2023-04-30T14:57:44.051Z,19.37
2023-04-30T15:00:12.315Z,19.38
2023-04-30T15:02:39.282Z,19.37
2023-04-30T15:05:07.742Z,19.37
2023-04-30T15:07:34.971Z,19.40
2023-04-30T15:10:01.812Z,19.43
2023-04-30T15:12:28.631Z,19.43
2023-04-30T15:14:55.480Z,19.44
2023-04-30T15:17:22.549Z,19.47
2023-04-30T15:19:49.359Z,19.52
2023-04-30T15:22:16.673Z,19.58
2023-04-30T15:24:43.533Z,19.62
2023-04-30T15:27:11.984Z,19.70
2023-04-30T15:29:40.580Z,19.73
2023-04-30T15:32:07.452Z,19.79
2023-04-30T15:34:34.262Z,19.88
2023-04-30T15:37:02.133Z,19.90
2023-04-30T15:39:29.149Z,19.91
2023-04-30T15:41:55.987Z,19.93
2023-04-30T15:44:22.982Z,19.97
2023-04-30T15:46:49.902Z,19.96
2023-04-30T15:49:17.000Z,19.98
2023-04-30T15:51:45.265Z,19.99
2023-04-30T15:54:13.664Z,20.02
2023-04-30T15:56:40.734Z,20.05
2023-04-30T15:59:07.890Z,20.07
2023-04-30T16:01:35.422Z,20.11
2023-04-30T16:04:02.535Z,20.09
2023-04-30T16:06:30.189Z,20.07
2023-04-30T16:08:57.018Z,20.06
2023-04-30T16:11:24.457Z,20.03
2023-04-30T16:13:54.655Z,20.01
2023-04-30T16:16:21.651Z,19.98
2023-04-30T16:18:48.793Z,19.98
2023-04-30T16:21:16.243Z,19.95
2023-04-30T16:23:43.440Z,19.91
2023-04-30T16:26:10.344Z,19.88
2023-04-30T16:28:37.165Z,19.85
2023-04-30T16:31:04.067Z,19.81
2023-04-30T16:33:30.990Z,19.80
2023-04-30T16:35:57.873Z,19.76
2023-04-30T16:38:24.951Z,19.75
2023-04-30T16:40:51.916Z,19.73
2023-04-30T16:43:18.845Z,19.68
2023-04-30T16:45:46.440Z,19.63
2023-04-30T16:48:13.422Z,19.58
2023-04-30T16:50:40.296Z,19.53
2023-04-30T16:53:09.234Z,19.49
2023-04-30T16:55:37.732Z,19.45
2023-04-30T16:58:04.506Z,19.41
2023-04-30T17:00:31.399Z,19.38
2023-04-30T17:02:58.280Z,19.34
2023-04-30T17:05:25.252Z,19.28
2023-04-30T17:07:52.088Z,19.26
2023-04-30T17:10:19.784Z,19.23
2023-04-30T17:12:46.637Z,19.22
2023-04-30T17:15:13.928Z,19.18
2023-04-30T17:17:41.006Z,19.16
2023-04-30T17:20:08.358Z,19.13
2023-04-30T17:22:35.626Z,19.11
2023-04-30T17:25:02.438Z,19.07
2023-04-30T17:27:29.244Z,19.05
2023-04-30T17:29:56.421Z,19.01
2023-04-30T17:32:23.540Z,18.99
2023-04-30T17:34:50.405Z,18.96
2023-04-30T17:37:17.893Z,18.94
2023-04-30T17:39:44.741Z,18.93
2023-04-30T17:42:13.224Z,18.90
2023-04-30T17:44:40.179Z,18.86
2023-04-30T17:47:07.281Z,18.83
2023-04-30T17:49:34.075Z,18.81
2023-04-30T17:52:01.462Z,18.78
2023-04-30T17:54:31.241Z,18.77
2023-04-30T17:56:59.263Z,18.72
2023-04-30T17:59:29.263Z,18.70
2023-04-30T18:01:56.530Z,18.68
2023-04-30T18:04:23.499Z,18.65
2023-04-30T18:06:50.536Z,18.63
2023-04-30T18:09:18.743Z,18.61
2023-04-30T18:11:45.964Z,18.60
2023-04-30T18:14:12.752Z,18.57
2023-04-30T18:16:39.760Z,18.56
2023-04-30T18:19:06.842Z,18.52
2023-04-30T18:21:33.837Z,18.50
2023-04-30T18:24:00.712Z,18.48
2023-04-30T18:26:27.969Z,18.44
2023-04-30T18:28:55.790Z,18.42
2023-04-30T18:31:22.821Z,18.40
2023-04-30T18:33:49.695Z,18.36
2023-04-30T18:36:16.602Z,18.30
2023-04-30T18:38:44.848Z,18.24
2023-04-30T18:41:11.692Z,18.18
2023-04-30T18:43:40.656Z,18.14
2023-04-30T18:46:07.639Z,18.10
2023-04-30T18:48:34.616Z,18.07
2023-04-30T18:51:04.468Z,18.04
2023-04-30T18:53:31.359Z,18.01
2023-04-30T18:55:58.364Z,17.97
2023-04-30T18:58:25.312Z,17.90
2023-04-30T19:00:52.596Z,17.87
2023-04-30T19:03:19.540Z,17.81
2023-04-30T19:05:46.454Z,17.77
2023-04-30T19:08:13.274Z,17.75
2023-04-30T19:10:40.052Z,17.70
2023-04-30T19:13:07.549Z,17.63
2023-04-30T19:15:35.679Z,17.56
2023-04-30T19:18:03.447Z,17.55
2023-04-30T19:20:30.440Z,17.48
2023-04-30T19:22:57.598Z,17.40
2023-04-30T19:25:25.104Z,17.34
2023-04-30T19:27:54.216Z,17.33
2023-04-30T19:30:21.678Z,17.27
2023-04-30T19:32:51.963Z,17.21
2023-04-30T19:35:24.433Z,17.17
2023-04-30T19:37:51.689Z,17.16
2023-04-30T19:40:18.967Z,17.08
2023-04-30T19:42:48.007Z,17.02
2023-04-30T19:45:15.388Z,16.95
2023-04-30T19:47:42.943Z,16.89
2023-04-30T19:50:10.493Z,16.83
2023-04-30T19:52:42.612Z,16.80
2023-04-30T19:55:09.989Z,16.75
2023-04-30T19:57:37.286Z,16.74
